Time;durP1;ratioP1;P1;durP2;ratioP2;P2;SDS_P1;SDS_P2;PMS_P1;PMS_P2;Temp;Humidity;BMP_temperature;BMP_pressure;BME280_temperature;BME280_humidity;BME280_pressure;Samples;Min_cycle;Max_cycle;Signal;HPM_P1;HPM_P2
2024/01/13 00:01:06;;;;;;;1.90;1.80;;;1.90;99.90;;;;;;4986333;28;20444;-75
2024/01/13 00:03:35;;;;;;;0.50;0.20;;;1.90;99.90;;;;;;4986233;28;20481;-74
2024/01/13 00:06:04;;;;;;;0.50;0.10;;;2.00;99.90;;;;;;4970241;28;20536;-74
2024/01/13 00:08:32;;;;;;;1.03;1.03;;;1.80;99.90;;;;;;4967731;28;20458;-75
2024/01/13 00:11:05;;;;;;;0.53;0.40;;;1.90;99.90;;;;;;4976265;28;20884;-75
2024/01/13 00:13:33;;;;;;;0.50;0.10;;;1.90;99.90;;;;;;4970912;28;20818;-75
2024/01/13 00:16:01;;;;;;;0.50;0.10;;;2.00;99.90;;;;;;4973440;28;21015;-75
2024/01/13 00:18:30;;;;;;;0.50;0.10;;;1.90;99.90;;;;;;4971411;28;20540;-75
2024/01/13 00:21:07;;;;;;;0.50;0.10;;;1.90;99.90;;;;;;4965746;28;20964;-75
2024/01/13 00:23:36;;;;;;;0.50;0.10;;;1.90;99.90;;;;;;4968758;28;20508;-75
2024/01/13 00:26:04;;;;;;;0.50;0.10;;;1.90;99.90;;;;;;4965787;28;20466;-73
2024/01/13 00:28:33;;;;;;;1.63;1.53;;;1.90;99.90;;;;;;4973316;28;20577;-74
2024/01/13 00:31:05;;;;;;;0.50;0.10;;;;;;;;;;4973171;28;20493;-76
2024/01/13 00:33:36;;;;;;;0.50;0.10;;;1.90;99.90;;;;;;4973296;28;20606;-74
2024/01/13 00:36:05;;;;;;;0.50;0.10;;;1.90;99.90;;;;;;4973036;28;20481;-75
2024/01/13 00:38:34;;;;;;;0.50;0.10;;;1.90;99.90;;;;;;4992266;28;20440;-74
2024/01/13 00:41:04;;;;;;;0.50;0.20;;;1.90;99.90;;;;;;4985912;28;20444;-75
2024/01/13 00:43:35;;;;;;;0.50;0.10;;;1.90;99.90;;;;;;4992203;28;20963;-75
2024/01/13 00:46:03;;;;;;;0.70;0.70;;;1.90;99.90;;;;;;4992724;28;20872;-75
2024/01/13 00:48:31;;;;;;;0.50;0.30;;;1.90;99.90;;;;;;4992762;28;20445;-74
2024/01/13 00:51:11;;;;;;;0.50;0.10;;;1.80;99.90;;;;;;4982001;28;20461;-74
2024/01/13 00:53:41;;;;;;;0.50;0.17;;;1.80;99.90;;;;;;4969438;28;20508;-74
2024/01/13 00:56:09;;;;;;;0.80;0.40;;;1.80;99.90;;;;;;4984086;28;20898;-72
2024/01/13 00:58:38;;;;;;;0.50;0.10;;;1.80;99.90;;;;;;4992346;28;20476;-74
2024/01/13 01:01:12;;;;;;;0.50;0.10;;;1.80;99.90;;;;;;4992711;28;20440;-74
2024/01/13 01:03:43;;;;;;;0.50;0.10;;;1.80;99.90;;;;;;4969893;28;20464;-74
2024/01/13 01:06:12;;;;;;;1.83;0.70;;;1.90;99.90;;;;;;4989696;28;20547;-74
2024/01/13 01:08:41;;;;;;;0.50;0.17;;;1.90;99.90;;;;;;4969524;28;20449;-73
2024/01/13 01:11:10;;;;;;;3.13;1.50;;;1.80;99.90;;;;;;4993470;28;20457;-74
2024/01/13 01:13:40;;;;;;;0.50;0.10;;;1.80;99.90;;;;;;4987264;28;20480;-74
2024/01/13 01:16:08;;;;;;;0.50;0.10;;;1.80;99.90;;;;;;4994440;28;20469;-74
2024/01/13 01:18:36;;;;;;;0.50;0.20;;;1.70;99.90;;;;;;4993056;28;20471;-74
2024/01/13 01:21:15;;;;;;;0.50;0.10;;;1.80;99.90;;;;;;4994504;28;20887;-74
2024/01/13 01:23:46;;;;;;;0.50;0.20;;;1.80;99.90;;;;;;4991357;28;20499;-74
2024/01/13 01:26:14;;;;;;;1.70;0.97;;;1.70;99.90;;;;;;4990389;28;20463;-73
2024/01/13 01:28:42;;;;;;;0.50;0.27;;;1.70;99.90;;;;;;4992929;28;20536;-75
2024/01/13 01:31:10;;;;;;;1.63;1.07;;;1.70;99.90;;;;;;4990209;28;20519;-74
2024/01/13 01:33:38;;;;;;;4.83;3.43;;;1.70;99.90;;;;;;4997021;28;20500;-74
2024/01/13 01:36:08;;;;;;;0.67;0.67;;;1.60;99.90;;;;;;4991262;28;20575;-74
2024/01/13 01:38:38;;;;;;;0.50;0.20;;;1.60;99.90;;;;;;4983442;28;20644;-74
2024/01/13 01:41:12;;;;;;;0.50;0.10;;;1.60;99.90;;;;;;4977519;28;20504;-73
2024/01/13 01:43:42;;;;;;;0.50;0.10;;;1.60;99.90;;;;;;4976301;28;20456;-74
2024/01/13 01:46:12;;;;;;;0.87;0.73;;;1.70;99.90;;;;;;4972458;28;20497;-73
2024/01/13 01:48:42;;;;;;;5.13;2.70;;;1.70;99.90;;;;;;4964800;28;20438;-74
2024/01/13 01:51:14;;;;;;;0.50;0.10;;;1.70;99.90;;;;;;4973028;28;20569;-73
2024/01/13 01:53:45;;;;;;;0.50;0.20;;;1.70;99.90;;;;;;4973101;28;20474;-74
2024/01/13 01:56:18;;;;;;;0.50;0.10;;;1.60;99.90;;;;;;4972500;28;20480;-72
2024/01/13 01:58:47;;;;;;;0.50;0.10;;;1.60;99.90;;;;;;4971464;28;20484;-74
2024/01/13 02:01:17;;;;;;;0.60;0.50;;;1.60;99.90;;;;;;4973186;28;20449;-74
2024/01/13 02:03:47;;;;;;;0.50;0.10;;;1.70;99.90;;;;;;4973304;28;20446;-73
2024/01/13 02:06:15;;;;;;;0.50;0.10;;;1.70;99.90;;;;;;4972432;28;20465;-74
2024/01/13 02:08:46;;;;;;;0.60;0.40;;;1.70;99.90;;;;;;4964153;28;20484;-75
2024/01/13 02:11:14;;;;;;;7.03;6.60;;;1.70;99.90;;;;;;4972387;28;20815;-75
2024/01/13 02:13:44;;;;;;;0.50;0.10;;;1.70;99.90;;;;;;4960166;28;20490;-74
2024/01/13 02:16:13;;;;;;;1.03;1.03;;;1.60;99.90;;;;;;4971885;28;21067;-74
2024/01/13 02:18:41;;;;;;;0.50;0.10;;;1.60;99.90;;;;;;4975606;28;20480;-75
2024/01/13 02:21:11;;;;;;;0.50;0.30;;;1.60;99.90;;;;;;4968865;28;20454;-74
2024/01/13 02:23:43;;;;;;;1.10;0.60;;;1.70;99.90;;;;;;4975680;28;20500;-74
2024/01/13 02:26:11;;;;;;;1.27;1.27;;;1.70;99.90;;;;;;4975565;28;20465;-74
2024/01/13 02:28:39;;;;;;;0.50;0.10;;;1.70;99.90;;;;;;4975326;28;20445;-75
2024/01/13 02:31:15;;;;;;;0.50;0.10;;;1.60;99.90;;;;;;4975200;28;20463;-74
2024/01/13 02:33:48;;;;;;;0.53;0.27;;;1.60;99.90;;;;;;4975325;28;20481;-73
2024/01/13 02:36:17;;;;;;;1.07;0.80;;;1.60;99.90;;;;;;4975649;28;20487;-74
2024/01/13 02:38:46;;;;;;;0.53;0.40;;;1.60;99.90;;;;;;4966437;28;20452;-74
2024/01/13 02:41:14;;;;;;;1.47;0.73;;;1.60;99.90;;;;;;4975724;28;20445;-74
2024/01/13 02:43:42;;;;;;;39.00;2.77;;;1.50;99.90;;;;;;4975390;28;20811;-74
2024/01/13 02:46:09;;;;;;;14.00;13.10;;;1.40;99.90;;;;;;4974902;28;20556;-74
2024/01/13 02:48:40;;;;;;;0.57;0.30;;;1.40;99.90;;;;;;4975087;28;20454;-74
2024/01/13 02:51:15;;;;;;;2.83;2.53;;;1.50;99.90;;;;;;4975853;28;20462;-75
2024/01/13 02:53:46;;;;;;;0.50;0.10;;;1.50;99.90;;;;;;4967876;28;20568;-73
2024/01/13 02:56:15;;;;;;;2.10;0.80;;;;;;;;;;5008233;22;20476;-71
2024/01/13 02:58:43;;;;;;;0.50;0.10;;;1.60;99.90;;;;;;4995948;28;20437;-72
2024/01/13 03:01:15;;;;;;;1.57;1.47;;;1.60;99.90;;;;;;4994668;28;20939;-71
2024/01/13 03:03:49;;;;;;;0.50;0.10;;;1.60;99.90;;;;;;4996266;28;20448;-72
2024/01/13 03:06:19;;;;;;;0.50;0.30;;;1.60;99.90;;;;;;5002678;28;20515;-72
2024/01/13 03:08:48;;;;;;;4.80;2.67;;;1.60;99.90;;;;;;5010820;28;20494;-71
2024/01/13 03:11:16;;;;;;;0.50;0.10;;;1.50;99.90;;;;;;5014311;28;20444;-71
2024/01/13 03:13:44;;;;;;;0.50;0.10;;;1.50;99.90;;;;;;5004210;28;20455;-72
2024/01/13 03:16:13;;;;;;;0.50;0.10;;;1.60;99.90;;;;;;5015742;28;20464;-71
2024/01/13 03:18:41;;;;;;;1.43;1.33;;;1.60;99.90;;;;;;5014199;28;20452;-71
2024/01/13 03:21:11;;;;;;;0.63;0.50;;;1.60;99.90;;;;;;5014179;28;20502;-71
2024/01/13 03:23:43;;;;;;;1.43;1.23;;;1.60;99.90;;;;;;5013826;28;20439;-72
2024/01/13 03:26:14;;;;;;;0.70;0.40;;;1.50;99.90;;;;;;5011997;28;20817;-72
2024/01/13 03:28:42;;;;;;;2.10;2.00;;;1.40;99.90;;;;;;5013298;28;20444;-72
2024/01/13 03:31:13;;;;;;;1.13;1.03;;;1.30;99.90;;;;;;5013588;28;20448;-72
2024/01/13 03:33:44;;;;;;;1.03;1.03;;;;;;;;;;5012922;28;20934;-72
2024/01/13 03:36:13;;;;;;;4.73;4.53;;;1.40;99.90;;;;;;5008413;28;20463;-72
2024/01/13 03:38:41;;;;;;;0.50;0.40;;;1.40;99.90;;;;;;5012842;28;21015;-72
2024/01/13 03:41:15;;;;;;;0.50;0.20;;;1.40;99.90;;;;;;4998448;28;20441;-73
2024/01/13 03:43:44;;;;;;;5.33;2.53;;;1.50;99.90;;;;;;4993485;28;20535;-72
2024/01/13 03:46:13;;;;;;;0.67;0.50;;;1.40;99.90;;;;;;4993290;28;20500;-72
2024/01/13 03:48:41;;;;;;;0.60;0.47;;;1.40;99.90;;;;;;4993029;28;20927;-72
2024/01/13 03:51:09;;;;;;;0.50;0.10;;;1.30;99.90;;;;;;4992715;28;20471;-72
2024/01/13 03:53:38;;;;;;;0.50;0.10;;;1.40;99.90;;;;;;4994773;28;20464;-72
2024/01/13 03:56:05;;;;;;;0.50;0.10;;;1.40;99.90;;;;;;4993040;28;20484;-72
2024/01/13 03:58:36;;;;;;;0.50;0.33;;;1.40;99.90;;;;;;4993186;28;20868;-72
2024/01/13 04:01:04;;;;;;;6.23;0.80;;;1.40;99.90;;;;;;4993169;28;20449;-72
2024/01/13 04:03:33;;;;;;;0.50;0.20;;;1.50;99.90;;;;;;4992934;28;20448;-73
2024/01/13 04:06:02;;;;;;;0.50;0.20;;;1.50;99.90;;;;;;5005947;28;20986;-72
2024/01/13 04:08:33;;;;;;;0.50;0.10;;;1.50;99.90;;;;;;5006219;28;20475;-73
2024/01/13 04:11:03;;;;;;;0.50;0.20;;;1.50;99.90;;;;;;5007289;28;20518;-72
2024/01/13 04:13:31;;;;;;;4.57;2.97;;;1.40;99.90;;;;;;5011531;28;20443;-72
2024/01/13 04:16:00;;;;;;;1.63;0.30;;;1.30;99.90;;;;;;4992733;28;20473;-73
2024/01/13 04:18:28;;;;;;;0.50;0.10;;;1.30;99.90;;;;;;4992691;28;20487;-72
2024/01/13 04:20:56;;;;;;;7.10;2.40;;;1.30;99.90;;;;;;5005126;28;20443;-71
2024/01/13 04:23:42;;;;;;;1.50;0.87;;;1.30;99.90;;;;;;4993653;28;20532;-71
2024/01/13 04:26:11;;;;;;;1.67;1.27;;;1.30;99.90;;;;;;4994740;28;20496;-73
2024/01/13 04:28:39;;;;;;;0.50;0.10;;;1.40;99.90;;;;;;4992224;28;20816;-72
2024/01/13 04:31:08;;;;;;;0.50;0.10;;;1.40;99.90;;;;;;4992660;28;20445;-74
2024/01/13 04:33:36;;;;;;;0.50;0.10;;;1.40;99.90;;;;;;4992688;28;20935;-72
2024/01/13 04:36:05;;;;;;;3.07;2.53;;;1.40;99.90;;;;;;4992624;28;20484;-70
2024/01/13 04:38:33;;;;;;;0.50;0.10;;;1.20;99.90;;;;;;5009179;28;20898;-72
2024/01/13 04:41:01;;;;;;;0.50;0.20;;;1.30;99.90;;;;;;5012215;28;20471;-71
2024/01/13 04:43:29;;;;;;;0.80;0.70;;;1.40;99.90;;;;;;5005468;28;20546;-73
2024/01/13 04:45:57;;;;;;;0.50;0.20;;;1.40;99.90;;;;;;5012066;28;20533;-73
2024/01/13 04:48:26;;;;;;;2.00;1.90;;;1.40;99.90;;;;;;5012085;28;20455;-70
2024/01/13 04:50:54;;;;;;;2.97;1.90;;;1.40;99.90;;;;;;4992671;28;20535;-71
2024/01/13 04:53:22;;;;;;;0.50;0.10;;;1.40;99.90;;;;;;4991786;28;20459;-72
2024/01/13 04:55:50;;;;;;;0.50;0.10;;;1.40;99.90;;;;;;5011452;28;20944;-71
2024/01/13 04:58:18;;;;;;;1.80;0.97;;;1.40;99.90;;;;;;5011923;28;20443;-71
2024/01/13 05:00:46;;;;;;;0.60;0.30;;;1.50;99.90;;;;;;5009622;28;20460;-71
2024/01/13 05:03:14;;;;;;;8.00;1.50;;;1.50;99.90;;;;;;5001325;28;21012;-72
2024/01/13 05:05:43;;;;;;;0.50;0.10;;;1.30;99.90;;;;;;5010067;28;20444;-72
2024/01/13 05:08:11;;;;;;;0.50;0.10;;;1.30;99.90;;;;;;5005008;28;20716;-72
2024/01/13 05:10:39;;;;;;;0.50;0.10;;;1.30;99.90;;;;;;4991669;28;20459;-72
2024/01/13 05:13:07;;;;;;;2.33;2.17;;;1.40;99.90;;;;;;4992241;28;21014;-71
2024/01/13 05:15:35;;;;;;;0.67;0.67;;;1.40;99.90;;;;;;4991996;28;20516;-71
2024/01/13 05:18:03;;;;;;;6.20;5.90;;;1.40;99.90;;;;;;4993424;28;20498;-71
2024/01/13 05:20:31;;;;;;;0.50;0.10;;;1.40;99.90;;;;;;5000945;28;21121;-71
2024/01/13 05:23:00;;;;;;;0.60;0.37;;;1.40;99.90;;;;;;5012884;28;20464;-71
2024/01/13 05:25:28;;;;;;;0.60;0.40;;;1.40;99.90;;;;;;5014601;28;20450;-72
2024/01/13 05:27:56;;;;;;;5.03;1.40;;;;;;;;;;5011078;28;20950;-71
2024/01/13 05:30:26;;;;;;;0.50;0.10;;;1.50;99.90;;;;;;4994807;28;20475;-72
2024/01/13 05:32:54;;;;;;;1.17;0.97;;;1.50;99.90;;;;;;4992787;28;20445;-74
2024/01/13 05:35:22;;;;;;;0.50;0.10;;;1.50;99.90;;;;;;4991866;28;20480;-71
2024/01/13 05:37:50;;;;;;;0.50;0.20;;;1.50;99.90;;;;;;4993913;28;20487;-72
2024/01/13 05:40:20;;;;;;;0.50;0.10;;;1.50;99.90;;;;;;5011370;28;20447;-72
2024/01/13 05:42:47;;;;;;;0.50;0.10;;;1.40;99.90;;;;;;4992295;28;20495;-72
2024/01/13 05:45:16;;;;;;;0.60;0.20;;;1.50;99.90;;;;;;4991645;28;20815;-72
2024/01/13 05:47:44;;;;;;;1.13;0.83;;;1.50;99.90;;;;;;4991282;28;20563;-72
2024/01/13 05:50:13;;;;;;;3.93;2.30;;;1.50;99.90;;;;;;4993367;28;20441;-72
2024/01/13 05:52:40;;;;;;;3.50;3.30;;;1.50;99.90;;;;;;5006107;28;21093;-73
2024/01/13 05:55:09;;;;;;;0.50;0.10;;;1.50;99.90;;;;;;5014665;28;20528;-73
2024/01/13 05:57:38;;;;;;;2.30;0.53;;;1.50;99.90;;;;;;5014439;28;20472;-73
2024/01/13 06:00:09;;;;;;;0.60;0.40;;;1.50;99.90;;;;;;5014763;28;20454;-73
2024/01/13 06:02:36;;;;;;;0.50;0.10;;;1.50;99.90;;;;;;5014649;28;20997;-71
2024/01/13 06:05:06;;;;;;;0.60;0.50;;;1.50;99.90;;;;;;5015274;28;20885;-72
2024/01/13 06:07:34;;;;;;;0.50;0.20;;;1.50;99.90;;;;;;5013493;28;20467;-72
2024/01/13 06:10:10;;;;;;;3.03;1.90;;;1.50;99.90;;;;;;5014790;28;20505;-73
2024/01/13 06:12:39;;;;;;;0.50;0.33;;;1.40;99.90;;;;;;5005426;28;20494;-71
2024/01/13 06:15:09;;;;;;;1.03;1.03;;;1.40;99.90;;;;;;4997744;28;20444;-71
2024/01/13 06:17:37;;;;;;;0.50;0.10;;;1.50;99.90;;;;;;4997044;28;20471;-71
2024/01/13 06:20:06;;;;;;;3.20;2.90;;;1.50;99.90;;;;;;4995685;28;20445;-71
2024/01/13 06:22:34;;;;;;;1.60;1.50;;;1.50;99.90;;;;;;4996268;28;20444;-71
2024/01/13 06:25:02;;;;;;;2.00;1.80;;;1.50;99.90;;;;;;4995218;28;20529;-71
2024/01/13 06:27:30;;;;;;;0.50;0.10;;;1.50;99.90;;;;;;4998888;28;20460;-72
2024/01/13 06:29:59;;;;;;;0.50;0.10;;;1.60;99.90;;;;;;4995473;28;20453;-71
2024/01/13 06:32:27;;;;;;;0.50;0.10;;;1.60;99.90;;;;;;4995248;28;20441;-71
2024/01/13 06:34:55;;;;;;;0.50;0.10;;;1.60;99.90;;;;;;4994445;28;20528;-73
2024/01/13 06:37:26;;;;;;;0.50;0.10;;;1.70;99.90;;;;;;4995272;28;20484;-72
2024/01/13 06:39:54;;;;;;;0.77;0.40;;;1.70;99.90;;;;;;4994974;28;20477;-72
2024/01/13 06:42:22;;;;;;;0.50;0.10;;;1.70;99.90;;;;;;5000899;28;20464;-72
2024/01/13 06:44:50;;;;;;;0.50;0.10;;;1.70;99.90;;;;;;5013896;28;20444;-72
2024/01/13 06:47:19;;;;;;;5.10;4.17;;;1.70;99.90;;;;;;4999580;28;20464;-72
2024/01/13 06:49:48;;;;;;;3.40;1.63;;;1.70;99.90;;;;;;4993798;28;20445;-73
2024/01/13 06:52:15;;;;;;;0.50;0.10;;;1.70;99.90;;;;;;4993793;28;20476;-73
2024/01/13 06:54:43;;;;;;;0.77;0.70;;;1.60;99.90;;;;;;4994193;28;20448;-73
2024/01/13 06:57:11;;;;;;;0.70;0.40;;;1.60;99.90;;;;;;4993788;28;20484;-71
2024/01/13 06:59:40;;;;;;;0.50;0.10;;;1.70;99.90;;;;;;4995919;28;21041;-72
2024/01/13 07:02:08;;;;;;;0.50;0.10;;;1.70;99.90;;;;;;5011532;28;20443;-72
2024/01/13 07:04:39;;;;;;;0.50;0.10;;;1.70;99.90;;;;;;5013111;28;20571;-72
2024/01/13 07:07:08;;;;;;;0.50;0.10;;;1.70;99.90;;;;;;5013511;28;20551;-72
2024/01/13 07:09:35;;;;;;;35.40;32.10;;;1.70;99.90;;;;;;5013725;28;20549;-72
2024/01/13 07:12:04;;;;;;;0.50;0.10;;;1.70;99.90;;;;;;5013529;28;20455;-71
2024/01/13 07:14:32;;;;;;;0.50;0.10;;;1.70;99.90;;;;;;5006915;28;20451;-73
2024/01/13 07:17:00;;;;;;;0.60;0.60;;;1.70;99.90;;;;;;5011792;28;20495;-73
2024/01/13 07:19:28;;;;;;;0.50;0.10;;;1.60;99.90;;;;;;5013321;28;20851;-74
2024/01/13 07:21:58;;;;;;;1.50;1.40;;;1.60;99.90;;;;;;5013621;28;20452;-71
2024/01/13 07:24:26;;;;;;;10.80;10.00;;;1.70;99.90;;;;;;5013477;28;20480;-71
2024/01/13 07:26:54;;;;;;;0.50;0.20;;;1.70;99.90;;;;;;5013218;28;20467;-74
2024/01/13 07:29:22;;;;;;;0.50;0.10;;;1.70;99.90;;;;;;5013173;28;20533;-71
2024/01/13 07:31:49;;;;;;;0.50;0.10;;;1.70;99.90;;;;;;5013160;28;20538;-71
2024/01/13 07:34:17;;;;;;;0.50;0.10;;;1.70;99.90;;;;;;4997852;28;20465;-72
2024/01/13 07:36:45;;;;;;;0.50;0.10;;;1.70;99.90;;;;;;5001060;28;20490;-72
2024/01/13 07:39:15;;;;;;;0.70;0.63;;;1.80;99.90;;;;;;5006301;28;20809;-72
2024/01/13 07:41:43;;;;;;;0.50;0.10;;;1.80;99.90;;;;;;5012790;28;20448;-72
2024/01/13 07:44:11;;;;;;;0.50;0.10;;;1.80;99.90;;;;;;5012616;28;20511;-73
2024/01/13 07:46:42;;;;;;;0.77;0.77;;;1.80;99.90;;;;;;5004401;28;20467;-72
2024/01/13 07:49:10;;;;;;;0.70;0.70;;;1.80;99.90;;;;;;5012723;28;20868;-72
2024/01/13 07:51:39;;;;;;;5.03;2.30;;;1.80;99.90;;;;;;5011883;28;20464;-72
2024/01/13 07:54:07;;;;;;;7.03;4.20;;;1.70;99.90;;;;;;5012582;28;20459;-73
2024/01/13 07:56:37;;;;;;;0.50;0.10;;;1.70;99.90;;;;;;5012141;28;20487;-72
2024/01/13 07:59:05;;;;;;;0.77;0.77;;;1.80;99.90;;;;;;5012541;28;20444;-73
2024/01/13 08:01:33;;;;;;;4.10;2.20;;;1.80;99.90;;;;;;5012469;28;20848;-73
2024/01/13 08:04:07;;;;;;;0.87;0.77;;;1.80;99.90;;;;;;5011339;28;20470;-73
2024/01/13 08:06:36;;;;;;;0.50;0.10;;;1.70;99.90;;;;;;5012322;28;20466;-71
2024/01/13 08:09:04;;;;;;;0.50;0.30;;;1.80;99.90;;;;;;5012749;28;20454;-73
2024/01/13 08:11:33;;;;;;;0.50;0.10;;;3.80;99.90;;;;;;5012461;28;20456;-71
2024/01/13 08:14:09;;;;;;;0.50;0.10;;;1.80;99.90;;;;;;5012143;28;20440;-72
2024/01/13 08:16:37;;;;;;;0.50;0.10;;;1.80;99.90;;;;;;5011945;28;20538;-73
2024/01/13 08:19:05;;;;;;;0.50;0.10;;;1.80;99.90;;;;;;5012394;28;20475;-73
2024/01/13 08:21:34;;;;;;;1.83;1.47;;;1.80;99.90;;;;;;5011803;28;20951;-72
2024/01/13 08:24:08;;;;;;;1.37;1.13;;;1.70;99.90;;;;;;5012779;28;20460;-71
2024/01/13 08:26:37;;;;;;;0.50;0.20;;;1.70;99.90;;;;;;5012106;28;20483;-73
2024/01/13 08:29:05;;;;;;;0.50;0.10;;;1.70;99.90;;;;;;5012503;28;20455;-73
2024/01/13 08:31:34;;;;;;;0.50;0.10;;;1.70;99.90;;;;;;5011932;28;20960;-73
2024/01/13 08:34:08;;;;;;;0.60;0.40;;;1.70;99.90;;;;;;5012103;28;20542;-73
2024/01/13 08:36:37;;;;;;;0.50;0.10;;;4.70;99.90;;;;;;5010598;28;20537;-73
2024/01/13 08:39:05;;;;;;;3.53;3.20;;;1.60;99.90;;;;;;5011528;28;20610;-71
2024/01/13 08:41:34;;;;;;;0.50;0.10;;;1.60;99.90;;;;;;5011865;28;20462;-73
2024/01/13 08:44:02;;;;;;;0.50;0.10;;;1.60;99.90;;;;;;5011840;28;20447;-73
2024/01/13 08:46:31;;;;;;;1.80;1.70;;;1.60;99.90;;;;;;5011422;28;20471;-72
2024/01/13 08:49:00;;;;;;;1.10;0.93;;;1.70;99.90;;;;;;5011457;28;21042;-73
2024/01/13 08:51:28;;;;;;;1.03;0.87;;;1.70;99.90;;;;;;5012270;28;20459;-73
2024/01/13 08:54:03;;;;;;;1.17;1.07;;;1.70;99.90;;;;;;5010672;28;20993;-73
2024/01/13 08:56:34;;;;;;;0.50;0.10;;;1.70;99.90;;;;;;5008588;28;20514;-71
2024/01/13 08:59:02;;;;;;;0.50;0.10;;;1.80;99.90;;;;;;5007806;28;20466;-73
2024/01/13 09:01:30;;;;;;;2.20;2.10;;;1.90;99.90;;;;;;5011314;28;20543;-74
2024/01/13 09:04:06;;;;;;;2.43;2.33;;;1.80;99.90;;;;;;4997803;28;20460;-73
2024/01/13 09:06:34;;;;;;;0.50;0.10;;;1.80;99.90;;;;;;5005697;28;20482;-72
2024/01/13 09:09:04;;;;;;;0.50;0.10;;;1.90;99.90;;;;;;5006173;28;20452;-72
2024/01/13 09:11:32;;;;;;;0.50;0.10;;;1.90;99.90;;;;;;5007545;28;20472;-72
2024/01/13 09:14:10;;;;;;;0.50;0.10;;;2.00;99.90;;;;;;4995042;28;20722;-73
2024/01/13 09:16:39;;;;;;;0.70;0.63;;;2.00;99.90;;;;;;5005928;28;20456;-73
2024/01/13 09:19:09;;;;;;;0.93;0.93;;;1.90;99.90;;;;;;5003612;28;20492;-73
2024/01/13 09:21:38;;;;;;;2.53;0.97;;;1.80;99.90;;;;;;5008823;28;20471;-74
2024/01/13 09:24:11;;;;;;;0.50;0.20;;;1.80;99.90;;;;;;4999409;28;20827;-73
2024/01/13 09:26:41;;;;;;;1.73;1.63;;;1.80;99.90;;;;;;5013525;28;20899;-73
2024/01/13 09:29:10;;;;;;;1.23;1.13;;;;;;;;;;5014776;28;20447;-72
2024/01/13 09:31:38;;;;;;;2.93;2.73;;;1.80;99.90;;;;;;5013843;28;20463;-71
2024/01/13 09:34:09;;;;;;;0.50;0.10;;;1.80;99.90;;;;;;5012170;28;20452;-73
2024/01/13 09:36:40;;;;;;;0.50;0.10;;;1.80;99.90;;;;;;5002966;28;20525;-71
2024/01/13 09:39:10;;;;;;;0.50;0.10;;;1.90;99.90;;;;;;5007358;28;20484;-72
2024/01/13 09:41:40;;;;;;;0.50;0.17;;;1.90;99.90;;;;;;5011475;28;20586;-73
2024/01/13 09:44:10;;;;;;;2.30;2.20;;;;;;;;;;5012932;28;20551;-72
2024/01/13 09:46:37;;;;;;;0.50;0.10;;;2.00;99.90;;;;;;5015113;28;20574;-72
2024/01/13 09:49:12;;;;;;;0.90;0.67;;;2.00;99.90;;;;;;5011818;28;20458;-73
2024/01/13 09:51:42;;;;;;;0.50;0.10;;;2.00;99.90;;;;;;5011161;28;20828;-71
2024/01/13 09:54:12;;;;;;;3.13;2.93;;;2.00;99.90;;;;;;5005149;28;20455;-73
2024/01/13 09:56:44;;;;;;;0.50;0.10;;;1.80;99.90;;;;;;5004500;28;20475;-73
2024/01/13 09:59:13;;;;;;;0.50;0.10;;;1.70;99.90;;;;;;5014593;28;20566;-73
2024/01/13 10:01:41;;;;;;;0.50;0.10;;;2.60;99.90;;;;;;5011154;28;20471;-72
2024/01/13 10:04:11;;;;;;;0.80;0.80;;;;;;;;;;5006263;28;20468;-72
2024/01/13 10:06:40;;;;;;;0.73;0.73;;;1.60;99.90;;;;;;5012654;28;20479;-73
2024/01/13 10:09:10;;;;;;;0.60;0.60;;;1.60;99.90;;;;;;5014828;28;20522;-72
2024/01/13 10:11:57;;;;;;;0.60;0.57;;;1.70;99.90;;;;;;5014479;28;20443;-72
2024/01/13 10:14:25;;;;;;;0.60;0.20;;;1.70;99.90;;;;;;5010938;28;20968;-72
2024/01/13 10:16:53;;;;;;;0.50;0.30;;;1.70;99.90;;;;;;5005368;28;20563;-73
2024/01/13 10:19:24;;;;;;;4.10;1.33;;;1.70;99.90;;;;;;4995111;28;20484;-73
2024/01/13 10:21:57;;;;;;;1.23;0.67;;;1.60;99.90;;;;;;5004814;28;20462;-72
2024/01/13 10:24:25;;;;;;;0.50;0.10;;;1.70;99.90;;;;;;5002285;28;20462;-71
2024/01/13 10:26:53;;;;;;;4.77;2.87;;;;;;;;;;5006190;28;20457;-74
2024/01/13 10:29:21;;;;;;;3.83;2.50;;;1.70;99.90;;;;;;5006006;28;20815;-73
2024/01/13 10:31:51;;;;;;;0.50;0.20;;;1.70;99.90;;;;;;5005493;28;20461;-73
2024/01/13 10:34:20;;;;;;;5.70;5.10;;;;;;;;;;5004732;28;20467;-72
2024/01/13 10:36:50;;;;;;;2.73;2.40;;;1.60;99.90;;;;;;5002534;28;20809;-72
2024/01/13 10:39:19;;;;;;;0.50;0.30;;;;;;;;;;5006934;28;20546;-72
2024/01/13 10:41:52;;;;;;;0.50;0.10;;;1.70;99.90;;;;;;5010767;28;20448;-73
2024/01/13 10:44:26;;;;;;;9.73;8.97;;;1.80;99.90;;;;;;5008815;28;20449;-72
2024/01/13 10:46:57;;;;;;;0.50;0.30;;;1.80;99.90;;;;;;5010447;28;21016;-72
2024/01/13 10:49:30;;;;;;;0.50;0.10;;;1.90;99.90;;;;;;5002794;28;20978;-72
2024/01/13 10:52:00;;;;;;;0.50;0.10;;;1.90;99.90;;;;;;5003428;28;20480;-73
2024/01/13 10:54:29;;;;;;;0.50;0.20;;;1.90;99.90;;;;;;5013460;28;20514;-74
2024/01/13 10:56:57;;;;;;;0.50;0.10;;;2.00;99.90;;;;;;5011707;28;20487;-73
2024/01/13 10:59:28;;;;;;;1.33;1.23;;;2.00;99.90;;;;;;5012979;28;20487;-72
2024/01/13 11:01:57;;;;;;;1.43;0.67;;;2.00;99.90;;;;;;5012768;28;20444;-72
2024/01/13 11:04:25;;;;;;;1.03;0.93;;;1.90;99.90;;;;;;5012937;28;20459;-73
2024/01/13 11:06:54;;;;;;;0.60;0.53;;;1.90;99.90;;;;;;5011363;28;20515;-74
2024/01/13 11:09:25;;;;;;;0.60;0.43;;;2.00;99.90;;;;;;5012714;28;20440;-73
2024/01/13 11:12:09;;;;;;;12.80;4.47;;;1.90;99.90;;;;;;5011387;28;20447;-73
2024/01/13 11:14:48;;;;;;;5.20;2.47;;;1.90;99.90;;;;;;5004105;28;20467;-72
2024/01/13 11:17:18;;;;;;;2.53;2.40;;;1.90;99.90;;;;;;5004158;28;20467;-72
2024/01/13 11:19:46;;;;;;;1.07;1.07;;;1.90;99.90;;;;;;5000486;28;20484;-73
2024/01/13 11:22:31;;;;;;;0.60;0.10;;;1.90;99.90;;;;;;5006222;28;20452;-74
2024/01/13 11:25:23;;;;;;;0.60;0.50;;;1.90;99.90;;;;;;5004334;28;20492;-73
2024/01/13 11:27:57;;;;;;;1.43;1.33;;;1.90;99.90;;;;;;5004594;28;20521;-72
2024/01/13 11:30:46;;;;;;;0.50;0.10;;;1.90;99.90;;;;;;5004460;28;20466;-74
2024/01/13 11:33:15;;;;;;;3.37;3.07;;;2.60;99.90;;;;;;4997187;28;20490;-70
2024/01/13 11:35:46;;;;;;;1.23;0.63;;;2.00;99.90;;;;;;5001768;28;20490;-70
2024/01/13 11:38:15;;;;;;;0.73;0.73;;;2.00;99.90;;;;;;5001213;28;20535;-70
2024/01/13 11:40:49;;;;;;;0.50;0.10;;;2.00;99.90;;;;;;5003146;28;20822;-69
2024/01/13 11:43:23;;;;;;;2.73;1.83;;;2.00;99.90;;;;;;5006798;28;20448;-69
2024/01/13 11:45:52;;;;;;;1.63;1.53;;;2.10;99.90;;;;;;5001923;28;20444;-69
2024/01/13 11:48:36;;;;;;;0.50;0.20;;;2.20;99.90;;;;;;4996222;28;20440;-69
2024/01/13 11:51:08;;;;;;;3.37;0.63;;;2.20;99.90;;;;;;5001605;28;20448;-69
2024/01/13 11:53:39;;;;;;;0.50;0.10;;;2.20;99.90;;;;;;4996027;28;20451;-70
2024/01/13 11:56:10;;;;;;;1.07;1.07;;;2.30;99.90;;;;;;5001766;28;20555;-69
2024/01/13 11:58:39;;;;;;;0.50;0.10;;;2.30;99.90;;;;;;5003631;28;20561;-69
2024/01/13 12:01:09;;;;;;;5.50;3.90;;;2.30;99.90;;;;;;5012336;28;20447;-70
2024/01/13 12:03:40;;;;;;;0.80;0.80;;;2.30;99.90;;;;;;5005439;28;20514;-69
2024/01/13 12:06:09;;;;;;;0.50;0.30;;;2.30;99.90;;;;;;5002387;28;20461;-71
2024/01/13 12:19:09;;;;;;;0.50;0.10;;;2.10;99.90;;;;;;5137885;27;20567;-70
2024/01/13 12:21:38;;;;;;;0.50;0.20;;;2.10;99.90;;;;;;5132693;27;20477;-70
2024/01/13 12:24:09;;;;;;;7.50;2.03;;;2.10;99.90;;;;;;5145966;27;20465;-70
2024/01/13 12:26:37;;;;;;;1.60;1.53;;;2.10;99.90;;;;;;5143615;27;20491;-72
2024/01/13 12:29:08;;;;;;;0.60;0.40;;;2.00;99.90;;;;;;5148845;27;20968;-71
2024/01/13 12:31:35;;;;;;;1.93;1.73;;;1.90;99.90;;;;;;5149255;27;20442;-71
2024/01/13 12:34:15;;;;;;;0.60;0.60;;;1.80;99.90;;;;;;5134358;27;20442;-70
2024/01/13 12:36:44;;;;;;;2.50;1.50;;;1.80;99.90;;;;;;5145005;27;20465;-72
2024/01/13 12:39:12;;;;;;;0.80;0.80;;;1.80;99.90;;;;;;5143724;27;20474;-71
2024/01/13 12:41:40;;;;;;;3.43;2.17;;;1.70;99.90;;;;;;5134480;27;20461;-73
2024/01/13 12:44:24;;;;;;;2.03;1.70;;;1.80;99.90;;;;;;5134707;27;20833;-71
2024/01/13 12:46:55;;;;;;;0.73;0.73;;;1.80;99.90;;;;;;5137146;27;20481;-71
2024/01/13 12:49:25;;;;;;;3.03;0.63;;;1.80;99.90;;;;;;5138568;27;20440;-71
2024/01/13 12:51:55;;;;;;;1.03;0.93;;;1.90;99.90;;;;;;5142595;27;20438;-72
2024/01/13 12:54:24;;;;;;;0.50;0.10;;;1.90;99.90;;;;;;5142490;27;20855;-72
2024/01/13 12:56:53;;;;;;;0.50;0.30;;;1.90;99.90;;;;;;5133081;27;20489;-70
2024/01/13 12:59:23;;;;;;;1.27;1.17;;;2.00;99.90;;;;;;5138998;27;20451;-71
2024/01/13 13:01:51;;;;;;;2.60;2.00;;;2.00;99.90;;;;;;5133582;27;20442;-71
2024/01/13 13:04:19;;;;;;;1.50;1.30;;;1.80;99.90;;;;;;5137822;27;20440;-71
2024/01/13 13:06:48;;;;;;;0.67;0.50;;;1.80;99.90;;;;;;5148458;27;20556;-71
2024/01/13 13:09:16;;;;;;;1.90;1.53;;;1.80;99.90;;;;;;5137918;27;20825;-71
2024/01/13 13:11:44;;;;;;;0.50;0.10;;;1.80;99.90;;;;;;5133988;27;20949;-72
2024/01/13 13:14:12;;;;;;;0.50;0.20;;;1.90;99.90;;;;;;5138528;27;20442;-71
2024/01/13 13:16:40;;;;;;;0.70;0.67;;;1.90;99.90;;;;;;5133708;27;20461;-70
2024/01/13 13:19:08;;;;;;;3.10;2.30;;;1.90;99.90;;;;;;5129879;27;20444;-71
2024/01/13 13:21:36;;;;;;;0.60;0.47;;;1.80;99.90;;;;;;5115175;27;20463;-71
2024/01/13 13:24:06;;;;;;;0.80;0.70;;;1.90;99.90;;;;;;5112672;28;21031;-72